• Join FlightAware (Why Join?)
  • Login
  • US Flag 
06:54PM EDT


 

Airport Tracker/Info


-or-


 

Live Flight TrackerFlight Track Log ✈ N110HM ✈ 02-May-2012 ✈ KDFW - KDEN

Flight Track Log - Related Links

Times and Time Zones

All times are in EDT time to prevent confusion due to time zone crossing. See the N110HM flight status page for this flight to view local times or setup timezone preferences in your user account.

Time Position Orientation Groundspeed Altitude Reporting Facility
EDT Latitude Longitude Course Direction KTS MPH feet Rate Location/Type
04:09PM 32.8709 -97.0271 288° West  Level FlightAware Approximate
04:10PM 32.8778 -97.0519 188° South 140 161 1,900  Level FAA TRACON SMA TRACON (SMA)
04:10PM 32.8428 -97.0575 195° South 194 223 2,800 2,280 Climbing FAA TRACON SMA TRACON (SMA)
04:11PM 32.8000 -97.0714 228° Southwest 234 269 5,000 3,120 Climbing FAA TRACON SMA TRACON (SMA)
04:12PM 32.7703 -97.1106 266° West 274 315 7,000 2,880 Climbing FAA TRACON SMA TRACON (SMA)
04:12PM 32.7669 -97.1653 276° West 272 313 8,900 2,700 Climbing FAA TRACON SMA TRACON (SMA)
04:13PM 32.7725 -97.2333 330° Northwest 308 354 10,700 2,880 Climbing FAA TRACON SMA TRACON (SMA)
04:14PM 32.8203 -97.2667 352° North 301 346 12,800 2,100 Climbing FAA TRACON SMA TRACON (SMA)
04:14PM 32.8775 -97.2761 360° North 343 395 13,500 1,320 Climbing FAA TRACON SMA TRACON (SMA)
04:15PM 32.9525 -97.2767 North 394 453 14,600 1,980 Climbing FAA TRACON SMA TRACON (SMA)
04:16PM 33.0244 -97.2750 North 419 482 16,200 1,560 Climbing FAA TRACON SMA TRACON (SMA)
04:16PM 33.1058 -97.2700 North 426 490 16,700 1,080 Climbing FAA TRACON SMA TRACON (SMA)
04:17PM 33.1875 -97.2661 North 425 489 17,700 1,860 Climbing FAA TRACON SMA TRACON (SMA)
04:18PM 33.2619 -97.2628 North 436 502 19,200 2,340 Climbing FAA TRACON SMA TRACON (SMA)
04:18PM 33.3472 -97.2592 North 442 509 20,800 2,400 Climbing FAA TRACON SMA TRACON (SMA)
04:19PM 33.4342 -97.2550 North 452 520 22,400 2,160 Climbing FAA TRACON SMA TRACON (SMA)
04:20PM 33.5131 -97.2478 North 460 529 23,700 2,220 Climbing FAA TRACON SMA TRACON (SMA)
04:20PM 33.6019 -97.2389 North 463 533 25,400 2,400 Climbing FAA TRACON SMA TRACON (SMA)
04:21PM 33.6903 -97.2303 North 460 529 27,000 2,400 Climbing FAA TRACON SMA TRACON (SMA)
04:22PM 33.7681 -97.2222 354° North 454 522 28,600 2,220 Climbing FAA TRACON SMA TRACON (SMA)
04:22PM 33.8519 -97.2325 328° Northwest 438 504 30,000 1,860 Climbing FAA TRACON SMA TRACON (SMA)
04:23PM 33.9250 -97.2883 315° West 416 479 31,200 1,620 Climbing Fort Worth Center
04:24PM 34.0086 -97.3908 316° Northwest 414 476 32,800 1,440 Climbing Fort Worth Center
04:25PM 34.0919 -97.4886 313° West 419 482 34,100 1,200 Climbing Fort Worth Center
04:26PM 34.1628 -97.5792 317° Northwest 419 482 35,200 900 Climbing Fort Worth Center
04:27PM 34.2481 -97.6747 315° West 414 476 35,900 360 Climbing Fort Worth Center
04:28PM 34.3333 -97.7781 316° Northwest 414 476 36,000  Climbing Fort Worth Center
04:29PM 34.4186 -97.8792 316° Northwest 414 476 36,000  Level Fort Worth Center
04:30PM 34.5122 -97.9881 315° West 414 476 36,000  Level Fort Worth Center
04:31PM 34.5950 -98.0897 315° West 419 482 36,000  Level Fort Worth Center
04:32PM 34.6819 -98.1939 317° Northwest 424 488 36,000  Level Fort Worth Center
04:33PM 34.7689 -98.2933 316° Northwest 429 494 36,000  Level Fort Worth Center
04:34PM 34.8558 -98.3953 316° Northwest 429 494 36,000  Level Fort Worth Center
04:35PM 34.9322 -98.4847 315° West 429 494 36,000  Level Fort Worth Center
04:36PM 35.0253 -98.6000 316° Northwest 429 494 36,000  Level Fort Worth Center
04:37PM 35.1117 -98.7028 315° West 429 494 36,000  Level Fort Worth Center
04:38PM 35.1981 -98.8083 314° West 429 494 36,000  Level Fort Worth Center
04:39PM 35.2825 -98.9139 315° West 434 499 36,000  Level Fort Worth Center
04:40PM 35.3686 -99.0200 315° West 434 499 36,000  Level Fort Worth Center
04:43PM 35.5769 -99.2764 315° West 426 490 36,000  Level Kansas City Center
04:44PM 35.6644 -99.3839 315° West 431 496 36,000  Level Kansas City Center
04:45PM 35.7519 -99.4917 314° West 431 496 36,000  Level Kansas City Center
04:46PM 35.8369 -99.5994 316° Northwest 436 502 36,000  Level Kansas City Center
04:47PM 35.9242 -99.7053 314° West 436 502 36,000  Level Kansas City Center
04:48PM 36.0111 -99.8164 314° West 441 507 36,000  Level Kansas City Center
04:49PM 36.0958 -99.9250 315° West 447 514 36,000  Level Kansas City Center
04:50PM 36.1828 -100.0339 314° West 447 514 36,000  Level Kansas City Center
04:51PM 36.2694 -100.1456 315° West 447 514 36,000  Level Kansas City Center
04:52PM 36.3442 -100.2386 314° West 447 514 36,000  Level Kansas City Center
04:53PM 36.4306 -100.3508 315° West 447 514 36,000  Level Kansas City Center
04:54PM 36.5250 -100.4667 314° West 447 514 36,000  Level Kansas City Center
04:55PM 36.6111 -100.5794 314° West 442 509 36,000  Level Kansas City Center
04:56PM 36.6953 -100.6869 314° West 442 509 36,000  Level Kansas City Center
04:57PM 36.7714 -100.7867 315° West 447 514 36,000  Level Kansas City Center
04:58PM 36.8672 -100.9086 313° West 447 514 36,000  Level Kansas City Center
04:59PM 36.9508 -101.0197 314° West 447 514 36,000  Level Kansas City Center
05:00PM 37.0364 -101.1311 314° West 447 514 36,000  Level Kansas City Center
05:01PM 37.1144 -101.2314 313° West 447 514 36,000  Level Kansas City Center
05:02PM 37.1978 -101.3431 314° West 447 514 36,000  Level Kansas City Center
05:03PM 37.2908 -101.4664 313° West 447 514 36,100  Climbing Kansas City Center
05:05PM 37.4853 -101.7258 313° West 450 518 36,000 -60 Descending Denver Center
05:06PM 37.5603 -101.8258 314° West 450 518 36,000  Level Denver Center
05:07PM 37.6461 -101.9381 313° West 450 518 36,000  Level Denver Center
05:08PM 37.7364 -102.0611 313° West 450 518 36,000  Level Denver Center
05:09PM 37.8222 -102.1794 314° West 450 518 36,000  Level Denver Center
05:10PM 37.8967 -102.2775 312° West 445 512 36,000  Level Denver Center
05:11PM 37.9822 -102.3964 313° West 450 518 36,000  Level Denver Center
05:12PM 38.0722 -102.5178 313° West 444 511 36,000  Level Denver Center
05:13PM 38.1572 -102.6319 312° West 444 511 36,000  Level Denver Center
05:14PM 38.2294 -102.7336 311° West 444 511 36,000  Level Denver Center
05:15PM 38.3106 -102.8511 311° West 437 503 36,000 -60 Level Denver Center
05:16PM 38.3981 -102.9817 311° West 442 509 35,900 -780 Descending Denver Center
05:17PM 38.4764 -103.0972 310° West 442 509 34,500 -1,440 Descending Denver Center
05:18PM 38.5464 -103.2056 311° West 442 509 33,100 -1,500 Descending Denver Center
05:19PM 38.6356 -103.3369 308° West 442 509 31,500 -1,500 Descending Denver Center
05:20PM 38.7053 -103.4508 310° West 452 520 30,100 -1,800 Descending Denver Center
05:21PM 38.7833 -103.5700 316° Northwest 458 527 28,000 -2,400 Descending Denver Center
05:22PM 38.8781 -103.6889 320° Northwest 436 502 25,400 -2,700 Descending Denver Center
05:23PM 38.9681 -103.7867 318° Northwest 423 487 22,600 -2,280 Descending Denver Center
05:24PM 39.0472 -103.8772 318° Northwest 418 481 20,900 -1,980 Descending Denver Center
05:25PM 39.1308 -103.9758 320° Northwest 418 481 18,700 -1,920 Descending Denver Center
05:26PM 39.2142 -104.0667 322° Northwest 411 473 17,100 -900 Descending Denver Center
05:27PM 39.2886 -104.1419 328° Northwest 365 420 17,000 -600 Descending Denver Center
05:28PM 39.3628 -104.2011 329° Northwest 324 373 16,000 -1,500 Descending Denver Center
05:29PM 39.4369 -104.2578 327° Northwest 311 358 14,100 -1,440 Descending Denver Center
05:30PM 39.5089 -104.3175 329° Northwest 306 352 13,200 -600 Descending Denver Center
05:31PM 39.5808 -104.3744 327° Northwest 306 352 13,000 -60 Descending Denver Center
05:32PM 39.6500 -104.4333 335° Northwest 310 357 13,100  Climbing Denver TRACON
05:33PM 39.7333 -104.4833 322° Northwest 307 353 13,000 -660 Descending Denver TRACON
05:34PM 39.8000 -104.5500 360° North 312 359 11,800 -840 Descending Denver TRACON
05:36PM 39.9500 -104.5500 333° Northwest 260 299 10,600 -1,020 Descending Denver TRACON
05:38PM 40.0500 -104.6167 207° Southwest 222 255 7,800 -1,020 Descending Denver TRACON
05:40PM 39.9500 -104.6833 207° Southwest 191 220 6,600 -600 Descending Denver TRACON